Time;durP1;ratioP1;P1;durP2;ratioP2;P2;SDS_P1;SDS_P2;PMS_P1;PMS_P2;Temp;Humidity;BMP_temperature;BMP_pressure;BME280_temperature;BME280_humidity;BME280_pressure;Samples;Min_cycle;Max_cycle;Signal;HPM_P1;HPM_P2
2022/12/22 03:26:15;;;;;;;0.63;0.63;;;;;;;;;;5093063;28;20077;-73
2022/12/22 03:28:40;;;;;;;1.45;0.32;;;;;;;;;;5094873;28;20383;-73
2022/12/22 03:31:06;;;;;;;0.00;0.00;;;;;;;;;;5094577;28;20055;-74
2022/12/22 03:33:32;;;;;;;0.00;0.00;;;;;;;;;;5095935;28;20047;-73
2022/12/22 03:35:58;;;;;;;0.00;0.00;;;;;;;;;;5095037;28;20027;-73
2022/12/22 03:38:24;;;;;;;0.00;0.00;;;;;;;;;;5095995;28;20024;-73
2022/12/22 03:40:49;;;;;;;0.10;0.10;;;;;;;;;;5094704;28;20066;-73
2022/12/22 03:49:08;;;;;;;0.00;0.00;;;;;;;;;;5096164;28;20445;-73
2022/12/22 03:51:30;;;;;;;0.38;0.38;;;;;;;;;;5095373;28;20020;-73
2022/12/22 03:53:56;;;;;;;0.98;0.70;;;;;;;;;;5096031;28;20468;-73
2022/12/22 03:56:21;;;;;;;0.00;0.00;;;;;;;;;;5094264;28;20020;-73
2022/12/22 03:58:47;;;;;;;0.00;0.00;;;;;;;;;;5094413;28;20050;-73
2022/12/22 04:01:12;;;;;;;2.65;0.30;;;;;;;;;;5095621;28;20023;-73
2022/12/22 04:03:37;;;;;;;0.40;0.40;;;;;;;;;;5096126;28;20068;-72
2022/12/22 04:06:03;;;;;;;0.00;0.00;;;;;;;;;;5095598;28;20016;-73
2022/12/22 04:08:29;;;;;;;0.00;0.00;;;;;;;;;;5094106;28;20548;-76
2022/12/22 04:13:38;;;;;;;0.00;0.00;;;;;;;;;;5095218;28;20058;-73
2022/12/22 04:16:04;;;;;;;0.00;0.00;;;;;;;;;;5095776;28;20016;-73
2022/12/22 04:18:29;;;;;;;0.00;0.00;;;;;;;;;;5093963;28;20460;-74
2022/12/22 04:20:55;;;;;;;0.00;0.00;;;;;;;;;;5095153;28;20380;-73
2022/12/22 04:23:20;;;;;;;0.65;0.60;;;;;;;;;;5094988;28;20024;-73
2022/12/22 04:25:45;;;;;;;0.00;0.00;;;;;;;;;;5094776;28;20392;-73
2022/12/22 04:28:11;;;;;;;0.00;0.00;;;;;;;;;;5095893;28;20019;-73
2022/12/22 04:30:36;;;;;;;0.00;0.00;;;;;;;;;;5095184;28;20528;-73
2022/12/22 04:33:02;;;;;;;0.03;0.03;;;;;;;;;;5095487;28;20095;-73
2022/12/22 04:35:27;;;;;;;0.00;0.00;;;;;;;;;;5093739;28;20028;-73
2022/12/22 04:37:52;;;;;;;0.10;0.10;;;;;;;;;;5094283;28;20034;-74
2022/12/22 04:40:18;;;;;;;0.00;0.00;;;;;;;;;;5093515;28;20024;-73
2022/12/22 04:42:43;;;;;;;0.00;0.00;;;;;;;;;;5095157;28;20023;-74
2022/12/22 04:45:09;;;;;;;0.00;0.00;;;;;;;;;;5093448;28;20536;-73
2022/12/22 04:47:34;;;;;;;0.00;0.00;;;;;;;;;;5094832;28;20124;-73
2022/12/22 04:49:59;;;;;;;0.17;0.17;;;;;;;;;;5093367;28;20388;-74
2022/12/22 04:52:25;;;;;;;0.10;0.10;;;;;;;;;;5094801;28;20154;-74
2022/12/22 04:54:51;;;;;;;0.10;0.10;;;;;;;;;;5093144;28;20368;-73
2022/12/22 04:57:16;;;;;;;0.00;0.00;;;;;;;;;;5094382;28;20408;-72
2022/12/22 04:59:42;;;;;;;0.00;0.00;;;;;;;;;;5094159;28;20047;-76
2022/12/22 05:02:07;;;;;;;0.05;0.05;;;;;;;;;;5092938;28;20028;-72
2022/12/22 05:04:33;;;;;;;0.00;0.00;;;;;;;;;;5094257;28;20036;-75
2022/12/22 05:06:58;;;;;;;0.00;0.00;;;;;;;;;;5093928;28;20016;-73
2022/12/22 05:09:23;;;;;;;0.00;0.00;;;;;;;;;;5092920;28;20024;-73
2022/12/22 05:11:49;;;;;;;0.00;0.00;;;;;;;;;;5094789;28;20487;-74
2022/12/22 05:14:14;;;;;;;0.13;0.13;;;;;;;;;;5092735;28;20116;-74
2022/12/22 05:16:40;;;;;;;0.00;0.00;;;;;;;;;;5093027;28;20023;-73
2022/12/22 05:19:05;;;;;;;0.00;0.00;;;;;;;;;;5094413;28;20050;-72
2022/12/22 05:21:31;;;;;;;0.00;0.00;;;;;;;;;;5092774;28;20012;-75
2022/12/22 05:23:56;;;;;;;0.00;0.00;;;;;;;;;;5094065;28;20035;-74
2022/12/22 05:26:22;;;;;;;0.10;0.10;;;;;;;;;;5092686;28;20012;-73
2022/12/22 05:28:47;;;;;;;0.05;0.05;;;;;;;;;;5094344;28;20027;-73
2022/12/22 05:31:15;;;;;;;0.00;0.00;;;;;;;;;;5094604;28;20422;-72
2022/12/22 05:33:40;;;;;;;0.00;0.00;;;;;;;;;;5094232;28;20389;-73
2022/12/22 05:36:06;;;;;;;0.00;0.00;;;;;;;;;;5092307;28;20015;-73
2022/12/22 05:38:31;;;;;;;0.10;0.10;;;;;;;;;;5092322;28;20020;-73
2022/12/22 05:40:57;;;;;;;0.10;0.10;;;;;;;;;;5092296;28;20020;-73
2022/12/22 05:43:22;;;;;;;0.00;0.00;;;;;;;;;;5093761;28;20016;-73
2022/12/22 05:45:48;;;;;;;0.00;0.00;;;;;;;;;;5092275;28;20422;-73
2022/12/22 05:48:13;;;;;;;0.00;0.00;;;;;;;;;;5093645;28;20415;-73
2022/12/22 05:50:39;;;;;;;0.00;0.00;;;;;;;;;;5090795;28;20472;-75
2022/12/22 05:53:08;;;;;;;0.45;0.32;;;;;;;;;;5091381;28;20016;-74
2022/12/22 05:55:33;;;;;;;0.20;0.20;;;;;;;;;;5093119;28;20027;-73
2022/12/22 05:58:00;;;;;;;0.30;0.30;;;;;;;;;;5093331;28;20012;-72
2022/12/22 06:00:27;;;;;;;0.05;0.05;;;;;;;;;;5091437;28;20052;-72
2022/12/22 06:02:52;;;;;;;0.38;0.38;;;;;;;;;;5092822;28;20016;-74
2022/12/22 06:05:18;;;;;;;0.15;0.15;;;;;;;;;;5091302;28;20035;-74
2022/12/22 06:07:44;;;;;;;0.08;0.08;;;;;;;;;;5093381;28;20417;-74
2022/12/22 06:10:10;;;;;;;0.00;0.00;;;;;;;;;;5092176;28;20111;-74
2022/12/22 06:12:36;;;;;;;0.25;0.25;;;;;;;;;;5092907;28;20020;-73
2022/12/22 06:15:01;;;;;;;0.45;0.15;;;;;;;;;;5091433;28;20016;-73
2022/12/22 06:17:26;;;;;;;0.60;0.60;;;;;;;;;;5092944;28;20012;-73
2022/12/22 06:19:52;;;;;;;0.20;0.20;;;;;;;;;;5092196;28;20019;-74
2022/12/22 06:22:17;;;;;;;4.85;0.52;;;;;;;;;;5092831;28;20023;-73
2022/12/22 06:24:43;;;;;;;6.82;1.45;;;;;;;;;;5091695;28;20032;-73
2022/12/22 06:27:09;;;;;;;6.32;0.50;;;;;;;;;;5092528;28;20024;-75
2022/12/22 06:29:35;;;;;;;0.05;0.05;;;;;;;;;;5091679;28;20016;-74
2022/12/22 06:32:01;;;;;;;0.03;0.03;;;;;;;;;;5092420;28;20097;-73
2022/12/22 06:34:26;;;;;;;0.00;0.00;;;;;;;;;;5091084;28;20119;-75
2022/12/22 06:36:52;;;;;;;0.00;0.00;;;;;;;;;;5092268;28;20052;-73
2022/12/22 06:39:17;;;;;;;0.35;0.17;;;;;;;;;;5092201;28;20012;-74
2022/12/22 06:44:27;;;;;;;0.00;0.00;;;;;;;;;;5092103;28;20109;-74
2022/12/22 06:46:52;;;;;;;0.00;0.00;;;;;;;;;;5092213;28;20123;-74
2022/12/22 06:49:18;;;;;;;0.15;0.00;;;;;;;;;;5090133;28;20452;-74
2022/12/22 06:51:44;;;;;;;0.00;0.00;;;;;;;;;;5090633;28;20024;-73
2022/12/22 06:54:09;;;;;;;0.65;0.25;;;;;;;;;;5091812;28;20031;-74
2022/12/22 06:56:35;;;;;;;0.00;0.00;;;;;;;;;;5090560;28;20055;-73
2022/12/22 06:59:00;;;;;;;0.00;0.00;;;;;;;;;;5091443;28;20437;-74
2022/12/22 07:01:26;;;;;;;0.00;0.00;;;;;;;;;;5090588;28;20404;-74
2022/12/22 07:03:52;;;;;;;0.00;0.00;;;;;;;;;;5092069;28;20580;-75
2022/12/22 07:06:17;;;;;;;0.00;0.00;;;;;;;;;;5092189;28;20099;-74
2022/12/22 07:08:43;;;;;;;0.10;0.10;;;;;;;;;;5091427;28;20020;-74
2022/12/22 07:11:09;;;;;;;0.00;0.00;;;;;;;;;;5091647;28;20046;-75
2022/12/22 07:13:34;;;;;;;0.25;0.03;;;;;;;;;;5091737;28;20427;-74
2022/12/22 07:16:04;;;;;;;0.08;0.08;;;;;;;;;;5091822;28;20065;-74
2022/12/22 07:18:31;;;;;;;0.08;0.08;;;;;;;;;;5090057;28;20019;-73
2022/12/22 07:20:57;;;;;;;1.00;0.90;;;;;;;;;;5090801;28;20495;-76
2022/12/22 07:23:22;;;;;;;0.00;0.00;;;;;;;;;;5091298;28;20020;-75
2022/12/22 07:25:48;;;;;;;0.00;0.00;;;;;;;;;;5091393;28;20520;-72
2022/12/22 07:28:13;;;;;;;0.15;0.15;;;;;;;;;;5090163;28;20464;-75
2022/12/22 07:30:39;;;;;;;0.00;0.00;;;;;;;;;;5091282;28;20020;-75
2022/12/22 07:33:04;;;;;;;0.10;0.10;;;;;;;;;;5091257;28;20099;-73
2022/12/22 07:35:33;;;;;;;1.17;1.08;;;;;;;;;;5090329;28;20024;-74
2022/12/22 07:37:59;;;;;;;0.22;0.22;;;;;;;;;;5089767;28;20434;-73
2022/12/22 07:40:24;;;;;;;0.10;0.08;;;;;;;;;;5090260;28;20376;-73
2022/12/22 07:42:54;;;;;;;0.57;0.38;;;;;;;;;;5091547;28;20034;-74
2022/12/22 07:45:20;;;;;;;0.00;0.00;;;;;;;;;;5090830;28;20579;-75
2022/12/22 07:47:46;;;;;;;0.00;0.00;;;;;;;;;;5091133;28;20095;-73
2022/12/22 07:50:26;;;;;;;0.45;0.20;;;;;;;;;;5091405;28;20103;-75
2022/12/22 07:52:53;;;;;;;0.00;0.00;;;;;;;;;;5089833;28;20107;-75
2022/12/22 07:55:19;;;;;;;0.00;0.00;;;;;;;;;;5091191;28;20036;-75
2022/12/22 07:57:44;;;;;;;11.70;0.55;;;;;;;;;;5091415;28;20095;-75
2022/12/22 08:00:11;;;;;;;0.00;0.00;;;;;;;;;;5090971;28;20083;-74
2022/12/22 08:02:36;;;;;;;0.05;0.05;;;;;;;;;;5090832;28;20044;-75
2022/12/22 08:05:01;;;;;;;0.00;0.00;;;;;;;;;;5092998;28;20491;-74
2022/12/22 08:07:27;;;;;;;0.10;0.10;;;;;;;;;;5090079;28;20389;-75
2022/12/22 08:09:54;;;;;;;0.00;0.00;;;;;;;;;;5090063;28;20508;-75
2022/12/22 08:12:19;;;;;;;0.90;0.90;;;;;;;;;;5089653;28;20426;-75
2022/12/22 08:14:45;;;;;;;0.00;0.00;;;;;;;;;;5093747;28;20016;-76
2022/12/22 08:17:11;;;;;;;0.28;0.28;;;;;;;;;;5094589;28;20463;-74
2022/12/22 08:19:36;;;;;;;0.13;0.13;;;;;;;;;;5095140;28;20019;-74
2022/12/22 08:22:03;;;;;;;0.00;0.00;;;;;;;;;;5093478;28;20130;-73
2022/12/22 08:24:28;;;;;;;0.10;0.10;;;;;;;;;;5095244;28;20031;-75
2022/12/22 08:26:56;;;;;;;0.00;0.00;;;;;;;;;;5094670;28;20060;-75
2022/12/22 08:29:24;;;;;;;0.25;0.25;;;;;;;;;;5094444;28;20468;-74
2022/12/22 08:31:53;;;;;;;0.00;0.00;;;;;;;;;;5094681;28;20061;-75
2022/12/22 08:34:18;;;;;;;0.00;0.00;;;;;;;;;;5094725;28;20020;-73
2022/12/22 08:36:49;;;;;;;0.10;0.10;;;;;;;;;;5094339;28;20023;-73
2022/12/22 08:39:16;;;;;;;0.22;0.22;;;;;;;;;;5094190;28;20016;-75
2022/12/22 08:41:51;;;;;;;0.00;0.00;;;;;;;;;;5094345;28;20465;-73
2022/12/22 08:44:25;;;;;;;0.00;0.00;;;;;;;;;;5094385;28;20350;-73
2022/12/22 08:46:53;;;;;;;0.15;0.15;;;;;;;;;;5094757;28;20570;-75
2022/12/22 08:49:19;;;;;;;0.00;0.00;;;;;;;;;;5093002;28;20030;-74
2022/12/22 08:51:44;;;;;;;0.00;0.00;;;;;;;;;;5092597;28;20021;-74
2022/12/22 08:54:10;;;;;;;0.00;0.00;;;;;;;;;;5092878;28;20111;-74
2022/12/22 08:56:36;;;;;;;0.52;0.28;;;;;;;;;;5093234;28;20050;-74
2022/12/22 08:59:04;;;;;;;0.00;0.00;;;;;;;;;;5093149;28;20012;-72
2022/12/22 09:01:30;;;;;;;3.50;0.75;;;;;;;;;;5095272;28;20024;-74
2022/12/22 09:03:55;;;;;;;0.75;0.55;;;;;;;;;;5094496;28;20049;-74
2022/12/22 09:06:21;;;;;;;0.00;0.00;;;;;;;;;;5092744;28;20403;-75
2022/12/22 09:08:47;;;;;;;0.00;0.00;;;;;;;;;;5095020;28;20020;-74
2022/12/22 09:11:13;;;;;;;1.05;0.95;;;;;;;;;;5093702;28;20570;-73
2022/12/22 09:13:38;;;;;;;0.80;0.55;;;;;;;;;;5092303;28;20027;-73
2022/12/22 09:16:05;;;;;;;0.00;0.00;;;;;;;;;;5093850;28;20016;-76
2022/12/22 09:18:30;;;;;;;0.00;0.00;;;;;;;;;;5092580;28;20027;-74
2022/12/22 09:20:56;;;;;;;0.00;0.00;;;;;;;;;;5093252;28;20020;-74
2022/12/22 09:23:21;;;;;;;0.08;0.08;;;;;;;;;;5092045;28;20115;-73
2022/12/22 09:25:47;;;;;;;0.00;0.00;;;;;;;;;;5091850;28;20012;-75
2022/12/22 09:28:12;;;;;;;0.47;0.45;;;;;;;;;;5093884;28;20031;-75
2022/12/22 09:30:38;;;;;;;0.10;0.10;;;;;;;;;;5094270;28;20016;-73
2022/12/22 09:33:03;;;;;;;0.00;0.00;;;;;;;;;;5091806;28;20024;-74
2022/12/22 09:35:28;;;;;;;0.10;0.10;;;;;;;;;;5093129;28;20464;-75
2022/12/22 09:37:54;;;;;;;0.40;0.40;;;;;;;;;;5091246;28;20020;-75
2022/12/22 09:40:21;;;;;;;0.00;0.00;;;;;;;;;;5092516;28;20102;-76
2022/12/22 09:42:46;;;;;;;0.25;0.25;;;;;;;;;;5093186;28;20099;-75
2022/12/22 09:45:18;;;;;;;0.03;0.03;;;;;;;;;;5092441;28;20445;-73
2022/12/22 09:47:45;;;;;;;0.08;0.08;;;;;;;;;;5091789;28;20481;-75
2022/12/22 09:50:13;;;;;;;0.00;0.00;;;;;;;;;;5092799;28;20483;-74
2022/12/22 09:52:46;;;;;;;0.20;0.20;;;;;;;;;;5090884;28;20105;-75
2022/12/22 09:55:21;;;;;;;0.73;0.28;;;;;;;;;;5091398;28;20491;-75
2022/12/22 09:57:46;;;;;;;0.35;0.28;;;;;;;;;;5091458;28;20377;-75
2022/12/22 10:00:13;;;;;;;0.30;0.25;;;;;;;;;;5092993;28;20059;-75
2022/12/22 10:02:59;;;;;;;0.30;0.30;;;;;;;;;;5093055;28;20016;-76
2022/12/22 10:05:29;;;;;;;0.00;0.00;;;;;;;;;;5050159;28;20044;-75
2022/12/22 10:08:01;;;;;;;0.00;0.00;;;;;;;;;;5091146;28;20012;-76
2022/12/22 10:10:30;;;;;;;0.30;0.30;;;;;;;;;;5093352;28;20099;-76
2022/12/22 10:12:57;;;;;;;0.20;0.20;;;;;;;;;;5091454;28;20054;-75
2022/12/22 10:15:23;;;;;;;0.00;0.00;;;;;;;;;;5092995;28;20122;-75
2022/12/22 10:17:49;;;;;;;0.05;0.05;;;;;;;;;;5091566;28;20051;-76
2022/12/22 10:20:19;;;;;;;0.00;0.00;;;;;;;;;;5093080;28;20062;-76
2022/12/22 10:22:47;;;;;;;0.00;0.00;;;;;;;;;;5091250;28;20023;-75
2022/12/22 10:25:25;;;;;;;0.10;0.10;;;;;;;;;;5092031;28;20030;-75
2022/12/22 10:27:51;;;;;;;0.10;0.10;;;;;;;;;;5092369;28;20036;-73
2022/12/22 10:30:22;;;;;;;0.00;0.00;;;;;;;;;;5092929;28;20026;-74
2022/12/22 10:33:20;;;;;;;0.90;0.10;;;;;;;;;;5092916;28;20043;-75
2022/12/22 10:35:47;;;;;;;0.00;0.00;;;;;;;;;;5057662;28;20024;-75
2022/12/22 10:38:24;;;;;;;0.00;0.00;;;;;;;;;;5092222;28;20020;-74
2022/12/22 10:40:56;;;;;;;0.00;0.00;;;;;;;;;;5092697;28;20020;-77
2022/12/22 10:43:33;;;;;;;0.22;0.22;;;;;;;;;;5091834;28;20020;-78
2022/12/22 10:45:59;;;;;;;0.00;0.00;;;;;;;;;;5092259;28;20035;-76
2022/12/22 10:48:26;;;;;;;0.00;0.00;;;;;;;;;;5091839;28;20065;-75
2022/12/22 10:50:52;;;;;;;0.00;0.00;;;;;;;;;;5092086;28;20077;-77
2022/12/22 10:53:18;;;;;;;0.20;0.20;;;;;;;;;;5091492;28;20012;-77
2022/12/22 10:55:43;;;;;;;0.00;0.00;;;;;;;;;;5091006;28;20024;-77
2022/12/22 10:58:09;;;;;;;0.00;0.00;;;;;;;;;;5092198;28;20138;-78
2022/12/22 11:00:35;;;;;;;0.00;0.00;;;;;;;;;;5091094;28;20467;-77
2022/12/22 11:03:01;;;;;;;0.00;0.00;;;;;;;;;;5091920;28;20407;-78
2022/12/22 11:05:27;;;;;;;0.08;0.08;;;;;;;;;;5091931;28;20101;-79
2022/12/22 11:07:52;;;;;;;0.10;0.00;;;;;;;;;;5092372;28;20008;-77
2022/12/22 11:10:34;;;;;;;0.00;0.00;;;;;;;;;;5091692;28;20016;-75
2022/12/22 11:13:05;;;;;;;0.20;0.20;;;;;;;;;;5090344;28;20024;-74
2022/12/22 11:15:31;;;;;;;0.00;0.00;;;;;;;;;;5091733;28;20524;-77
2022/12/22 11:18:06;;;;;;;0.00;0.00;;;;;;;;;;5091724;28;20020;-76
2022/12/22 11:20:36;;;;;;;0.00;0.00;;;;;;;;;;5091038;28;20024;-76
2022/12/22 11:23:04;;;;;;;0.00;0.00;;;;;;;;;;5091486;28;20021;-77
2022/12/22 11:25:48;;;;;;;1.02;0.73;;;;;;;;;;5089996;28;20538;-77
2022/12/22 11:28:33;;;;;;;0.00;0.00;;;;;;;;;;5089831;28;20563;-75
2022/12/22 11:31:04;;;;;;;0.00;0.00;;;;;;;;;;5089723;28;20500;-76
2022/12/22 11:33:48;;;;;;;0.00;0.00;;;;;;;;;;5091701;28;20027;-79
2022/12/22 11:36:32;;;;;;;0.20;0.10;;;;;;;;;;5091314;28;20035;-79
2022/12/22 11:39:03;;;;;;;0.60;0.32;;;;;;;;;;5091173;28;20046;-78
2022/12/22 11:41:31;;;;;;;0.10;0.10;;;;;;;;;;5091877;28;20575;-77
2022/12/22 11:44:15;;;;;;;0.10;0.10;;;;;;;;;;5090033;28;20035;-79
2022/12/22 11:46:58;;;;;;;0.00;0.00;;;;;;;;;;5089502;28;20024;-79
2022/12/22 11:49:38;;;;;;;0.17;0.13;;;;;;;;;;5093784;28;20024;-78
2022/12/22 11:52:30;;;;;;;0.00;0.00;;;;;;;;;;5094484;28;20024;-79
2022/12/22 11:55:01;;;;;;;0.00;0.00;;;;;;;;;;5063768;28;20503;-76
2022/12/22 11:57:36;;;;;;;0.00;0.00;;;;;;;;;;5094185;28;20359;-79
2022/12/22 12:00:01;;;;;;;0.00;0.00;;;;;;;;;;5093334;28;20051;-78
2022/12/22 12:02:39;;;;;;;2.08;1.45;;;;;;;;;;5094238;28;20369;-78
2022/12/22 12:05:18;;;;;;;0.00;0.00;;;;;;;;;;5095249;28;20373;-78
2022/12/22 12:07:55;;;;;;;0.30;0.30;;;;;;;;;;5096207;28;20039;-79
2022/12/22 12:10:26;;;;;;;0.00;0.00;;;;;;;;;;5095796;28;20063;-79
2022/12/22 12:12:56;;;;;;;0.15;0.15;;;;;;;;;;5095502;28;20024;-79
2022/12/22 12:15:31;;;;;;;0.00;0.00;;;;;;;;;;5095682;28;20111;-79
2022/12/22 12:18:25;;;;;;;0.00;0.00;;;;;;;;;;5093620;28;20031;-76
2022/12/22 12:21:01;;;;;;;0.00;0.00;;;;;;;;;;5095622;28;20115;-78
2022/12/22 12:23:36;;;;;;;0.00;0.00;;;;;;;;;;5095215;28;20028;-79
2022/12/22 12:26:04;;;;;;;0.00;0.00;;;;;;;;;;5095303;28;20605;-79
2022/12/22 12:28:46;;;;;;;0.00;0.00;;;;;;;;;;5093764;28;20024;-79
2022/12/22 12:31:14;;;;;;;0.08;0.08;;;;;;;;;;5094251;28;20387;-80
2022/12/22 12:33:46;;;;;;;0.00;0.00;;;;;;;;;;5093954;28;20074;-79
2022/12/22 12:36:30;;;;;;;0.00;0.00;;;;;;;;;;5094888;28;20111;-79
2022/12/22 12:39:01;;;;;;;0.10;0.10;;;;;;;;;;5093369;28;20016;-79
2022/12/22 12:41:27;;;;;;;0.20;0.20;;;;;;;;;;5094714;28;20021;-77
2022/12/22 12:43:54;;;;;;;0.00;0.00;;;;;;;;;;5094809;28;20062;-78
2022/12/22 12:46:37;;;;;;;0.00;0.00;;;;;;;;;;5094618;28;20020;-79
2022/12/22 12:49:03;;;;;;;0.00;0.00;;;;;;;;;;5094142;28;20016;-78
2022/12/22 12:51:54;;;;;;;0.00;0.00;;;;;;;;;;5093717;28;20012;-78
2022/12/22 12:54:40;;;;;;;0.40;0.40;;;;;;;;;;5088138;28;20024;-78
2022/12/22 12:57:05;;;;;;;0.00;0.00;;;;;;;;;;5091657;28;20024;-80
2022/12/22 12:59:40;;;;;;;0.00;0.00;;;;;;;;;;5093311;28;20102;-76
2022/12/22 13:02:41;;;;;;;0.25;0.25;;;;;;;;;;5094267;28;20016;-77
2022/12/22 13:05:06;;;;;;;0.10;0.10;;;;;;;;;;5031708;28;20180;-78
2022/12/22 13:07:51;;;;;;;0.00;0.00;;;;;;;;;;5075364;28;20074;-79
2022/12/22 13:10:21;;;;;;;0.00;0.00;;;;;;;;;;5095947;28;20027;-78
2022/12/22 13:12:51;;;;;;;0.00;0.00;;;;;;;;;;5096097;28;20016;-78
2022/12/22 13:15:30;;;;;;;0.85;0.65;;;;;;;;;;5094127;28;20396;-78
2022/12/22 13:17:56;;;;;;;0.28;0.22;;;;;;;;;;5092830;28;20024;-78
2022/12/22 13:20:26;;;;;;;0.00;0.00;;;;;;;;;;5094359;28;20085;-79
2022/12/22 13:22:53;;;;;;;0.00;0.00;;;;;;;;;;5092787;28;20020;-79
2022/12/22 13:25:19;;;;;;;0.00;0.00;;;;;;;;;;5092634;28;20420;-79
2022/12/22 13:27:45;;;;;;;4.80;0.25;;;;;;;;;;5093866;28;20042;-78
2022/12/22 13:30:15;;;;;;;0.00;0.00;;;;;;;;;;5092730;28;20473;-79
2022/12/22 13:32:41;;;;;;;0.00;0.00;;;;;;;;;;5094063;28;20012;-75
2022/12/22 13:35:14;;;;;;;0.00;0.00;;;;;;;;;;5092050;28;20483;-79
2022/12/22 13:37:45;;;;;;;0.00;0.00;;;;;;;;;;5091831;28;20185;-79
2022/12/22 13:40:12;;;;;;;0.30;0.20;;;;;;;;;;5093241;28;20020;-78
2022/12/22 13:42:40;;;;;;;0.00;0.00;;;;;;;;;;5093413;28;20025;-79
2022/12/22 13:45:11;;;;;;;0.10;0.10;;;;;;;;;;5093015;28;20043;-80
2022/12/22 13:47:41;;;;;;;0.00;0.00;;;;;;;;;;5094346;28;20023;-79
2022/12/22 13:50:16;;;;;;;0.00;0.00;;;;;;;;;;5093360;28;20464;-78
2022/12/22 13:52:41;;;;;;;0.00;0.00;;;;;;;;;;5091918;28;20024;-78
2022/12/22 13:55:12;;;;;;;0.00;0.00;;;;;;;;;;5094146;28;20025;-79
2022/12/22 13:57:38;;;;;;;0.00;0.00;;;;;;;;;;5092619;28;20138;-77
2022/12/22 14:00:03;;;;;;;0.00;0.00;;;;;;;;;;5093238;28;20470;-79
2022/12/22 14:02:31;;;;;;;0.00;0.00;;;;;;;;;;5091541;28;20425;-79
2022/12/22 14:05:07;;;;;;;0.08;0.08;;;;;;;;;;5093156;28;20035;-80
2022/12/22 14:07:33;;;;;;;0.00;0.00;;;;;;;;;;5092763;28;20021;-79
2022/12/22 14:10:00;;;;;;;0.10;0.10;;;;;;;;;;5092396;28;20040;-80
2022/12/22 14:12:30;;;;;;;0.00;0.00;;;;;;;;;;5090562;28;20423;-80
2022/12/22 14:14:56;;;;;;;0.08;0.08;;;;;;;;;;5091436;28;20116;-79
2022/12/22 14:17:21;;;;;;;0.50;0.30;;;;;;;;;;5092589;28;20044;-79
2022/12/22 14:19:51;;;;;;;0.00;0.00;;;;;;;;;;5091615;28;20070;-79
2022/12/22 14:22:19;;;;;;;0.05;0.05;;;;;;;;;;5091251;28;20357;-79
2022/12/22 14:24:47;;;;;;;0.00;0.00;;;;;;;;;;5092733;28;20112;-78
2022/12/22 14:27:31;;;;;;;0.00;0.00;;;;;;;;;;5092787;28;20419;-79
2022/12/22 14:29:58;;;;;;;0.05;0.05;;;;;;;;;;5092684;28;20024;-77
2022/12/22 14:32:35;;;;;;;0.10;0.10;;;;;;;;;;5092188;28;20020;-79
2022/12/22 14:35:01;;;;;;;0.38;0.20;;;;;;;;;;5092362;28;20047;-76
2022/12/22 14:37:26;;;;;;;0.00;0.00;;;;;;;;;;5092001;28;20488;-78
2022/12/22 14:39:55;;;;;;;0.00;0.00;;;;;;;;;;5091054;28;20028;-78
2022/12/22 14:42:21;;;;;;;1.02;0.45;;;;;;;;;;5091069;28;20038;-80
2022/12/22 14:44:47;;;;;;;0.00;0.00;;;;;;;;;;5092144;28;20028;-80
2022/12/22 14:47:15;;;;;;;0.00;0.00;;;;;;;;;;5090616;28;20015;-80
2022/12/22 14:49:50;;;;;;;0.00;0.00;;;;;;;;;;5092815;28;20020;-79
2022/12/22 14:52:28;;;;;;;0.00;0.00;;;;;;;;;;5091972;28;20035;-78
2022/12/22 14:54:54;;;;;;;0.13;0.13;;;;;;;;;;5092793;28;20106;-78
2022/12/22 14:57:40;;;;;;;0.10;0.10;;;;;;;;;;5090520;28;20580;-78
2022/12/22 15:00:06;;;;;;;0.00;0.00;;;;;;;;;;5089629;28;20044;-77
2022/12/22 15:02:34;;;;;;;0.00;0.00;;;;;;;;;;5091388;28;20035;-79
2022/12/22 15:05:12;;;;;;;0.00;0.00;;;;;;;;;;5091308;28;20545;-80
2022/12/22 15:07:48;;;;;;;0.20;0.20;;;;;;;;;;5092824;28;20020;-79
2022/12/22 15:10:13;;;;;;;1.38;0.20;;;;;;;;;;5092081;28;20531;-80
2022/12/22 15:12:39;;;;;;;0.00;0.00;;;;;;;;;;5091367;28;20028;-78
2022/12/22 15:15:11;;;;;;;0.00;0.00;;;;;;;;;;5092615;28;20422;-79
2022/12/22 15:17:36;;;;;;;0.00;0.00;;;;;;;;;;5092929;28;20079;-79
2022/12/22 15:20:03;;;;;;;0.00;0.00;;;;;;;;;;5092236;28;20028;-79
2022/12/22 15:22:29;;;;;;;0.15;0.08;;;;;;;;;;5093035;28;20039;-79
2022/12/22 15:24:55;;;;;;;0.28;0.13;;;;;;;;;;5096793;28;20079;-78
2022/12/22 15:27:20;;;;;;;0.00;0.00;;;;;;;;;;5094504;28;20105;-80
2022/12/22 15:29:46;;;;;;;0.00;0.00;;;;;;;;;;5095876;28;20020;-77
2022/12/22 15:32:12;;;;;;;0.95;0.22;;;;;;;;;;5095952;28;20016;-80
2022/12/22 15:34:39;;;;;;;0.00;0.00;;;;;;;;;;5095971;28;20012;-78
2022/12/22 15:37:04;;;;;;;0.10;0.10;;;;;;;;;;5095734;28;20020;-80
2022/12/22 15:39:30;;;;;;;0.00;0.00;;;;;;;;;;5096014;28;20032;-79
2022/12/22 15:41:55;;;;;;;0.38;0.17;;;;;;;;;;5095359;28;20023;-80
2022/12/22 15:44:21;;;;;;;0.00;0.00;;;;;;;;;;5094954;28;20123;-79
2022/12/22 15:46:54;;;;;;;0.00;0.00;;;;;;;;;;5094445;28;20016;-79
2022/12/22 15:49:21;;;;;;;0.20;0.20;;;;;;;;;;5096129;28;20028;-81
2022/12/22 15:51:52;;;;;;;0.22;0.22;;;;;;;;;;5095758;28;20464;-79
2022/12/22 15:54:18;;;;;;;0.00;0.00;;;;;;;;;;5094213;28;20463;-80
2022/12/22 15:56:44;;;;;;;0.00;0.00;;;;;;;;;;5093791;28;20111;-79
2022/12/22 15:59:18;;;;;;;0.20;0.20;;;;;;;;;;5093827;28;20047;-79
2022/12/22 16:01:44;;;;;;;1.25;0.98;;;;;;;;;;5094225;28;20032;-79
2022/12/22 16:04:09;;;;;;;0.22;0.22;;;;;;;;;;5095553;28;20035;-78
2022/12/22 16:06:35;;;;;;;0.10;0.10;;;;;;;;;;5095085;28;20028;-80
2022/12/22 16:09:00;;;;;;;0.77;0.38;;;;;;;;;;5094802;28;20020;-80
2022/12/22 16:11:25;;;;;;;0.00;0.00;;;;;;;;;;5095354;28;20023;-79
2022/12/22 16:13:51;;;;;;;0.00;0.00;;;;;;;;;;5093384;28;20358;-79
2022/12/22 16:16:17;;;;;;;2.28;0.15;;;;;;;;;;5095210;28;20016;-79
2022/12/22 16:18:42;;;;;;;0.10;0.10;;;;;;;;;;5095839;28;20016;-79
2022/12/22 16:21:15;;;;;;;0.00;0.00;;;;;;;;;;5093798;28;20051;-81
2022/12/22 16:23:42;;;;;;;0.28;0.28;;;;;;;;;;5096611;28;20016;-79
2022/12/22 16:26:11;;;;;;;0.15;0.15;;;;;;;;;;5093449;28;20375;-74
2022/12/22 16:28:37;;;;;;;10.52;0.52;;;;;;;;;;5092924;28;20491;-75
2022/12/22 16:31:02;;;;;;;0.28;0.28;;;;;;;;;;5093897;28;20016;-73
2022/12/22 16:33:28;;;;;;;0.38;0.38;;;;;;;;;;5093872;28;20035;-73
2022/12/22 16:35:53;;;;;;;0.10;0.10;;;;;;;;;;5092332;28;20016;-71
2022/12/22 16:38:19;;;;;;;0.05;0.05;;;;;;;;;;5093254;28;20107;-74
2022/12/22 16:40:46;;;;;;;0.00;0.00;;;;;;;;;;5092746;28;20407;-74
2022/12/22 16:43:18;;;;;;;0.15;0.15;;;;;;;;;;5094077;28;20055;-73
2022/12/22 16:45:44;;;;;;;0.40;0.40;;;;;;;;;;5094218;28;20050;-74
2022/12/22 16:48:15;;;;;;;0.00;0.00;;;;;;;;;;5092643;28;20020;-75
2022/12/22 16:50:43;;;;;;;0.00;0.00;;;;;;;;;;5092629;28;20075;-75
2022/12/22 16:53:10;;;;;;;0.00;0.00;;;;;;;;;;5094024;28;20107;-75
2022/12/22 16:55:35;;;;;;;0.10;0.10;;;;;;;;;;5092310;28;20489;-76
2022/12/22 16:58:01;;;;;;;0.68;0.68;;;;;;;;;;5094459;28;20016;-76
2022/12/22 17:00:28;;;;;;;1.00;0.10;;;;;;;;;;5093712;28;20052;-76
2022/12/22 17:03:03;;;;;;;0.28;0.28;;;;;;;;;;5093561;28;20028;-79
2022/12/22 17:05:32;;;;;;;0.13;0.13;;;;;;;;;;5096619;28;20076;-79
2022/12/22 17:07:58;;;;;;;1.10;0.35;;;;;;;;;;5095111;28;20035;-80
2022/12/22 17:10:23;;;;;;;0.00;0.00;;;;;;;;;;5096036;28;20016;-81
2022/12/22 17:12:50;;;;;;;0.35;0.35;;;;;;;;;;5094230;28;20055;-80
2022/12/22 17:15:18;;;;;;;0.00;0.00;;;;;;;;;;5094499;28;20016;-81
2022/12/22 17:17:44;;;;;;;0.00;0.00;;;;;;;;;;5095802;28;20492;-82
2022/12/22 17:20:13;;;;;;;0.65;0.45;;;;;;;;;;5095534;28;20035;-81
2022/12/22 17:22:39;;;;;;;0.00;0.00;;;;;;;;;;5094452;28;20076;-82
2022/12/22 17:25:07;;;;;;;0.20;0.20;;;;;;;;;;5093190;28;20525;-81
2022/12/22 17:27:33;;;;;;;0.20;0.20;;;;;;;;;;5095168;28;20365;-80
2022/12/22 17:30:02;;;;;;;0.10;0.10;;;;;;;;;;5093460;28;20025;-81
2022/12/22 17:32:28;;;;;;;0.17;0.17;;;;;;;;;;5095234;28;20101;-82
2022/12/22 17:34:54;;;;;;;0.38;0.32;;;;;;;;;;5093017;28;20024;-82
2022/12/22 17:37:22;;;;;;;1.85;1.02;;;;;;;;;;5092443;28;20461;-80
2022/12/22 17:39:49;;;;;;;0.00;0.00;;;;;;;;;;5094823;28;20022;-78
2022/12/22 17:42:16;;;;;;;0.43;0.43;;;;;;;;;;5094017;28;20016;-80
2022/12/22 17:44:41;;;;;;;0.47;0.22;;;;;;;;;;5094082;28;20077;-80
2022/12/22 17:47:10;;;;;;;0.30;0.30;;;;;;;;;;5095642;28;20028;-81
2022/12/22 17:49:35;;;;;;;0.20;0.20;;;;;;;;;;5099304;28;20023;-80
2022/12/22 17:52:00;;;;;;;1.38;1.08;;;;;;;;;;5096796;28;20016;-81
2022/12/22 17:54:27;;;;;;;1.98;0.85;;;;;;;;;;5096383;28;20109;-81
2022/12/22 17:57:00;;;;;;;0.00;0.00;;;;;;;;;;5097430;28;20425;-81
2022/12/22 17:59:25;;;;;;;0.30;0.25;;;;;;;;;;5097447;28;20480;-79
2022/12/22 18:01:50;;;;;;;0.03;0.03;;;;;;;;;;5095302;28;20016;-80
2022/12/22 18:04:16;;;;;;;0.00;0.00;;;;;;;;;;5094708;28;20038;-81
2022/12/22 18:06:42;;;;;;;0.17;0.17;;;;;;;;;;5093038;28;20023;-80
2022/12/22 18:09:10;;;;;;;0.55;0.30;;;;;;;;;;5093183;28;20455;-80
2022/12/22 18:11:36;;;;;;;0.00;0.00;;;;;;;;;;5094097;28;20024;-81
2022/12/22 18:14:02;;;;;;;0.22;0.20;;;;;;;;;;5091834;28;20505;-80
2022/12/22 18:16:28;;;;;;;0.17;0.17;;;;;;;;;;5093431;28;20023;-79
2022/12/22 18:18:53;;;;;;;1.77;1.00;;;;;;;;;;5093800;28;20020;-81
2022/12/22 18:21:20;;;;;;;0.00;0.00;;;;;;;;;;5093960;28;20047;-82
2022/12/22 18:23:46;;;;;;;0.00;0.00;;;;;;;;;;5094587;28;20020;-81
2022/12/22 18:26:23;;;;;;;1.35;1.25;;;;;;;;;;5093527;28;20026;-81